Vilanova de Sau





Hora UTC 22:50
Temperatura 8.3 ºC
Humitat 99.2 %
Pressió 1024.7 hPa
Pluja 0.0 mm
Velocitat vent 0.0 km/h
Direcció vent WSW
Radiació solar 0.0 W/m²
Fuel 101.9 %

Dades diàries 2020-10-29



Hora UTC (hivern +1h; estiu +2h)
Temperatura (ºC) Humitat (%) Pressió (hPa) Velocitat vent (km/h) Precipitació (mm) Fuel (%) Radiació solar (W/m²)
Hora UTC Aire Humitat Pressió Vel. Dir. Vel. Max Dir. Intent. màx 5 min. Fuel Rad. Sol.
00:05 7.5 99.1 1022.5 0.3 WSW 0.3 WSW 0.0 110.6 0.0
00:10 7.4 99.1 1022.5 0.0 NNE 0.0 WSW 0.0 111.0 0.0
00:15 7.3 99.1 1022.5 0.0 NNE 0.0 WSW 0.0 111.5 0.0
00:20 7.3 99.2 1022.5 0.0 NNE 0.0 WSW 0.0 112.1 0.0
00:25 7.4 99.2 1022.4 0.0 NNE 0.0 WSW 0.0 112.5 0.0
00:30 7.3 99.2 1022.4 0.0 NNE 0.0 WSW 0.0 113.1 0.0
00:35 7.3 99.3 1022.4 0.0 NNE 0.0 WSW 0.0 113.7 0.0
00:40 7.3 99.3 1022.4 0.0 WSW 3.4 WSW 0.0 114.2 0.0
00:45 7.3 99.2 1022.5 0.0 NNE 0.0 WSW 0.0 114.7 0.0
00:50 7.2 99.3 1022.6 0.0 NNE 0.0 WSW 0.0 115.2 0.0
00:55 7.2 99.4 1022.7 0.0 NNE 0.0 WSW 0.0 115.8 0.0
01:00 7.3 99.4 1022.7 0.0 NNE 0.0 WSW 0.0 116.2 0.0
01:05 7.3 99.4 1022.7 0.0 NNE 0.0 WSW 0.0 116.7 0.0
01:10 7.3 99.3 1022.8 0.0 NNE 0.0 WSW 0.0 117.2 0.0
01:15 7.2 99.3 1022.8 0.0 NNE 0.0 WSW 0.0 117.6 0.0
01:20 7.1 99.3 1022.8 0.0 NNE 0.0 WSW 0.0 118.0 0.0
01:25 7.1 99.3 1022.8 0.0 NNE 0.0 WSW 0.0 118.5 0.0
01:30 7.0 99.3 1022.8 0.0 NNE 0.0 WSW 0.0 119.0 0.0
01:35 7.1 99.4 1022.8 0.0 NNE 0.0 WSW 0.0 119.7 0.0
01:40 7.1 99.4 1022.8 0.0 NNE 0.0 WSW 0.0 120.2 0.0
01:45 7.2 99.5 1022.7 0.0 NNE 0.0 WSW 0.0 120.6 0.0
01:50 7.3 99.6 1022.7 0.0 NNE 0.0 WSW 0.0 121.1 0.0
01:55 7.3 99.5 1022.5 0.1 WSW 3.4 WSW 0.0 121.3 0.0
02:00 7.4 99.5 1022.4 0.0 NNE 0.0 WSW 0.0 121.6 0.0
02:05 7.3 99.4 1022.4 0.0 NNE 0.0 WSW 0.0 122.0 0.0
02:10 7.4 99.6 1022.6 0.0 NNE 0.0 WSW 0.0 122.4 0.0
02:15 7.4 99.5 1022.5 0.0 NNE 0.0 WSW 0.0 122.8 0.0
02:20 7.4 99.5 1022.4 0.0 NNE 0.0 WSW 0.0 123.1 0.0
02:25 7.4 99.4 1022.3 0.0 NNE 0.0 WSW 0.0 123.3 0.0
02:30 7.4 99.6 1022.3 1.9 NW 6.1 NW 0.0 123.9 0.0
02:35 7.4 99.6 1022.4 0.0 NNE 0.0 NNW 0.0 124.4 0.0
02:40 7.3 99.5 1022.6 0.0 NNE 0.0 NNW 0.0 124.7 0.0
02:45 7.2 99.5 1022.6 0.0 NNE 0.0 NNW 0.0 125.3 0.0
02:50 7.3 99.6 1022.6 1.2 W 3.4 WSW 0.0 126.1 0.0
02:55 7.3 99.5 1022.6 0.7 WSW 3.4 W 0.0 126.4 0.0
03:00 7.1 99.4 1022.7 0.2 SW 3.4 SW 0.0 126.7 0.0
03:05 7.0 99.4 1022.6 1.3 SW 3.4 SW 0.0 127.1 0.0
03:10 6.9 99.5 1022.4 2.3 WSW 6.1 SW 0.0 127.5 0.0
03:15 6.9 99.6 1022.4 1.1 WSW 6.1 WSW 0.0 128.1 0.0
03:20 6.8 99.5 1022.5 0.0 NNE 0.0 WSW 0.0 128.4 0.0
03:25 6.7 99.4 1022.6 0.2 WSW 3.4 WSW 0.0 128.7 0.0
03:30 6.7 99.5 1022.6 0.0 NNE 0.0 WSW 0.0 129.2 0.0
03:35 6.6 99.5 1022.6 0.0 NNE 0.0 WSW 0.0 129.6 0.0
03:40 6.6 99.5 1022.5 0.0 NNE 0.0 WSW 0.0 129.9 0.0
03:45 6.5 99.6 1022.7 0.0 NNE 0.0 WSW 0.0 130.4 0.0
03:50 6.6 99.6 1022.8 0.0 NNE 0.0 WSW 0.0 131.0 0.0
03:55 6.6 99.7 1023.0 0.0 NNE 0.0 WSW 0.0 131.7 0.0
04:00 6.6 99.7 1023.1 0.0 NNE 0.0 WSW 0.0 132.0 0.0
04:05 6.6 99.7 1023.2 0.0 NNE 0.0 WSW 0.0 132.5 0.0
04:10 6.8 99.8 1023.2 0.0 NNE 0.0 WSW 0.0 132.8 0.0
04:15 7.0 99.9 1023.1 0.0 NNE 0.0 WSW 0.0 133.1 0.0
04:20 7.2 99.8 1023.1 0.0 S 3.4 S 0.0 133.3 0.0
04:25 7.4 99.8 1023.1 0.0 NNE 0.0 S 0.0 133.6 0.0
04:30 7.7 99.9 1023.1 0.4 W 3.4 SW 0.0 133.9 0.0
04:35 7.9 99.9 1023.2 0.0 NNE 0.0 WSW 0.0 134.1 0.0
04:40 7.9 99.7 1023.2 0.0 NNE 0.0 WSW 0.0 134.1 0.0
04:45 8.0 99.6 1023.3 0.0 NNE 0.0 WSW 0.0 134.2 0.0
04:50 8.0 99.6 1023.3 0.0 NNE 0.0 WSW 0.0 134.4 0.0
04:55 8.1 99.7 1023.3 0.0 NNE 0.0 WSW 0.0 134.6 0.0
05:00 8.1 99.7 1023.4 0.2 NE 6.1 NE 0.0 134.7 0.0
05:05 8.1 99.5 1023.5 1.0 NE 3.4 NE 0.0 134.7 0.0
05:10 8.0 99.5 1023.5 0.0 ENE 3.4 ENE 0.0 134.7 0.0
05:15 8.1 99.6 1023.4 0.0 NNE 0.0 ENE 0.0 134.8 0.0
05:20 8.1 99.6 1023.3 0.6 WSW 3.4 WSW 0.0 134.9 0.0
05:25 8.3 99.7 1023.4 0.0 NNE 0.0 W 0.0 135.1 0.0
05:30 8.3 99.6 1023.4 0.0 NNE 0.0 W 0.0 135.2 0.0
05:35 8.3 99.6 1023.4 0.0 NNE 0.0 W 0.0 135.3 0.0
05:40 8.3 99.6 1023.4 0.0 NNE 0.0 SE 0.0 135.3 0.0
05:45 8.4 99.6 1023.4 0.0 NNE 0.0 SE 0.0 135.5 0.0
05:50 8.5 99.6 1023.3 0.0 NNE 0.0 NNE 0.0 135.5 0.0
05:55 8.5 99.6 1023.3 0.0 NNE 0.0 NNE 0.0 135.6 0.0
06:00 8.6 99.6 1023.3 0.0 NNE 0.0 NNE 0.0 135.7 0.0
06:05 8.6 99.5 1023.3 0.0 NNE 0.0 NNE 0.0 135.7 0.1
06:10 8.5 99.5 1023.4 0.0 NNE 0.0 NNE 0.0 135.7 0.1
06:15 8.5 99.5 1023.4 0.0 NNE 0.0 NNE 0.0 135.7 0.1
06:20 8.6 99.5 1023.4 0.0 NNE 0.0 NE 0.0 135.8 0.4
06:25 8.6 99.6 1023.5 0.0 NNE 0.0 NE 0.0 135.9 0.8
06:30 8.6 99.5 1023.5 0.0 NNE 0.0 NE 0.0 135.9 1.5
06:35 8.6 99.5 1023.6 0.0 NNE 0.0 NE 0.0 135.9 2.6
06:40 8.7 99.5 1023.7 0.0 NNE 0.0 NE 0.0 136.0 4.9
06:45 8.7 99.5 1023.6 0.0 NNE 0.0 NE 0.0 136.0 11.7
06:50 8.7 99.5 1023.8 0.0 NNE 0.0 SSW 0.0 136.0 9.8
06:55 8.8 99.4 1023.9 0.0 SW 3.4 SW 0.0 135.9 10.1
07:00 8.8 99.5 1024.0 0.0 NNE 0.0 SW 0.0 135.9 14.6
07:05 8.8 99.4 1024.1 0.0 NNE 0.0 ENE 0.0 136.0 20.8
07:10 8.8 99.4 1024.1 0.0 NNE 0.0 ENE 0.0 135.9 22.7
07:15 8.9 99.4 1024.2 0.0 NNE 0.0 ENE 0.0 135.8 26.9
07:20 8.9 99.4 1024.3 0.0 NNE 0.0 ENE 0.0 135.8 34.9
07:25 9.1 99.4 1024.3 0.0 NNE 0.0 S 0.0 135.8 52.0
07:30 9.2 99.4 1024.3 0.0 NNE 0.0 SSE 0.0 135.7 58.9
07:35 9.3 99.3 1024.2 0.0 NNE 0.0 SSE 0.0 135.5 54.7
07:40 9.4 99.2 1024.1 0.0 NNE 0.0 SSE 0.0 135.2 67.0
07:45 9.5 99.1 1024.3 0.0 NNE 0.0 SE 0.0 134.9 63.3
07:50 9.5 99.0 1024.3 0.0 NNE 0.0 NE 0.0 134.6 66.9
07:55 9.6 98.9 1024.2 0.0 NNE 0.0 SSW 0.0 134.5 71.6
08:00 9.7 99.0 1024.2 0.1 NNE 3.4 NNE 0.0 134.4 121.4
08:05 9.9 98.9 1024.2 0.8 NNE 3.4 NNE 0.0 134.1 122.4
08:10 10.0 98.8 1024.2 0.2 N 3.4 N 0.0 133.9 93.4
08:15 10.2 98.7 1024.2 0.0 NNE 0.0 N 0.0 133.5 84.3
08:20 10.2 98.6 1024.1 0.0 NNE 0.0 N 0.0 132.9 105.4
08:25 10.3 98.5 1024.2 2.3 NE 6.1 NE 0.0 132.3 105.6
08:30 10.3 98.4 1024.3 1.6 ENE 6.1 ENE 0.0 131.8 94.7
08:35 10.3 98.3 1024.4 3.2 NNE 8.8 NE 0.0 131.3 132.1
08:40 10.4 98.1 1024.4 1.8 NNE 8.8 NNE 0.0 130.6 181.8
08:45 10.6 97.8 1024.4 1.5 NE 6.1 NE 0.0 129.8 244.5
08:50 10.7 97.2 1024.5 1.7 NE 6.1 NE 0.0 128.4 197.2
08:55 10.9 96.6 1024.7 1.3 ENE 6.1 ENE 0.0 127.3 106.7
09:00 10.9 96.1 1024.8 1.1 ENE 6.1 ENE 0.0 126.4 128.3
09:05 11.1 95.7 1024.9 0.0 NNE 0.0 NE 0.0 125.7 141.9
09:10 11.2 95.2 1025.0 0.0 NNE 0.0 NE 0.0 124.9 134.1
09:15 11.3 94.5 1025.0 0.0 NNE 0.0 NE 0.0 124.1 142.2
09:20 11.5 93.9 1025.1 0.0 NNE 0.0 NE 0.0 123.2 262.9
09:25 11.8 93.0 1025.1 0.0 NNE 0.0 NE 0.0 121.8 118.0
09:30 12.1 92.2 1025.0 0.0 NNE 0.0 NE 0.0 120.9 269.1
09:35 12.5 91.7 1025.0 0.0 NNE 0.0 ENE 0.0 119.6 440.5
09:40 13.1 89.7 1024.9 0.0 NNE 0.0 ENE 0.0 117.2 352.4
09:45 13.8 87.3 1024.9 0.3 NE 3.4 NE 0.0 114.9 336.9
09:50 14.2 85.2 1024.9 3.1 ENE 6.1 ENE 0.0 112.8 491.5
09:55 14.6 83.7 1024.8 3.2 NE 6.1 ENE 0.0 110.3 412.9
10:00 14.8 81.6 1024.8 5.4 NE 8.8 NNE 0.0 108.2 291.7
10:05 14.5 81.9 1024.8 4.2 ENE 8.8 ENE 0.0 106.7 409.2
10:10 14.7 81.4 1024.8 4.5 NE 8.8 ENE 0.0 105.3 301.1
10:15 14.9 80.5 1024.8 3.5 NE 8.8 ENE 0.0 103.9 398.2
10:20 15.0 80.2 1024.8 5.0 NE 11.5 NNE 0.0 102.4 462.5
10:25 15.6 79.0 1024.7 3.8 NE 8.8 NE 0.0 100.7 598.1
10:30 16.1 75.3 1024.7 6.0 NNE 14.2 ENE 0.0 98.4 613.3
10:35 16.3 74.7 1024.7 6.2 N 14.2 N 0.0 96.0 602.2
10:40 16.7 73.6 1024.7 2.1 NW 8.8 SW 0.0 93.9 587.2
10:45 16.8 71.3 1024.6 7.0 WNW 16.9 WNW 0.0 91.4 572.6
10:50 16.6 72.6 1024.6 3.9 W 11.5 NW 0.0 89.4 573.2
10:55 16.8 72.2 1024.6 5.1 W 11.5 WSW 0.0 87.6 568.4
11:00 16.7 72.0 1024.6 5.7 WNW 14.2 WSW 0.0 85.8 552.1
11:05 17.0 70.9 1024.5 4.1 NNE 11.5 W 0.0 84.5 540.7
11:10 17.1 69.7 1024.4 5.8 WNW 14.2 WSW 0.0 83.1 525.3
11:15 17.0 70.6 1024.4 5.0 N 14.2 WNW 0.0 81.8 539.6
11:20 17.0 70.0 1024.4 5.0 NNE 14.2 NNE 0.0 80.7 566.2
11:25 17.3 68.9 1024.3 4.4 N 11.5 NNW 0.0 79.6 541.2
11:30 17.4 67.6 1024.3 3.4 N 11.5 NNW 0.0 78.5 540.0
11:35 17.5 67.7 1024.2 4.6 NNE 14.2 NNE 0.0 77.4 574.1
11:40 17.6 68.0 1024.1 3.7 N 8.8 NW 0.0 76.5 591.3
11:45 17.7 66.2 1024.1 8.1 NNE 16.9 NNE 0.0 75.2 574.7
11:50 17.4 67.4 1024.1 7.2 NNE 16.9 NNE 0.0 74.1 541.4
11:55 17.4 67.3 1024.0 7.1 NNE 16.9 NNE 0.0 73.4 558.4
12:00 17.5 67.5 1023.9 6.7 NE 14.2 NNE 0.0 72.7 513.5
12:05 17.5 67.9 1023.9 6.0 N 19.6 NNE 0.0 72.0 495.6
12:10 17.7 66.8 1023.9 3.6 NW 11.5 N 0.0 71.4 557.3
12:15 17.7 65.8 1023.9 6.6 WNW 16.9 NW 0.0 70.4 508.0
12:20 17.6 66.2 1023.9 4.4 N 11.5 W 0.0 69.5 496.2
12:25 17.7 65.3 1023.8 7.1 W 16.9 N 0.0 68.9 547.7
12:30 17.5 65.5 1023.8 4.8 W 11.5 WSW 0.0 68.1 502.4
12:35 17.4 65.9 1023.7 2.4 NW 6.1 NW 0.0 67.5 452.5
12:40 17.6 66.0 1023.7 2.4 NNW 8.8 WSW 0.0 67.1 476.6
12:45 17.8 64.8 1023.7 6.0 NNE 19.6 NNE 0.0 66.5 494.6
12:50 17.6 65.5 1023.6 2.3 WNW 8.8 N 0.0 65.7 376.8
12:55 17.8 64.8 1023.7 5.7 WSW 14.2 SSW 0.0 65.3 440.4
13:00 17.8 63.6 1023.6 5.3 N 11.5 W 0.0 64.9 464.6
13:05 17.5 64.4 1023.6 7.1 NNE 16.9 NE 0.0 64.1 415.5
13:10 17.5 65.1 1023.6 5.8 N 16.9 NNE 0.0 63.9 438.9
13:15 17.4 64.6 1023.6 5.8 NNE 14.2 NNE 0.0 63.4 449.9
13:20 17.5 64.5 1023.5 4.8 NNE 11.5 NNE 0.0 62.9 346.5
13:25 17.5 63.5 1023.5 4.3 W 8.8 W 0.0 62.5 447.4
13:30 17.7 64.0 1023.4 1.4 NE 6.1 ENE 0.0 62.2 395.6
13:35 18.0 63.0 1023.5 3.1 N 11.5 NE 0.0 61.8 397.2
13:40 17.7 62.8 1023.5 3.6 NNE 11.5 NE 0.0 61.2 397.4
13:45 17.7 62.8 1023.4 3.2 NNW 8.8 NNW 0.0 60.7 402.9
13:50 17.8 62.4 1023.3 4.9 W 14.2 W 0.0 60.2 373.7
13:55 17.6 63.3 1023.3 1.9 NNW 8.8 NW 0.0 59.9 360.1
14:00 17.8 62.7 1023.4 2.4 W 8.8 WNW 0.0 59.5 353.4
14:05 17.9 62.4 1023.4 4.4 NNE 8.8 ENE 0.0 59.0 355.0
14:10 17.9 62.5 1023.4 3.0 NNW 11.5 NNE 0.0 58.6 337.6
14:15 17.8 62.0 1023.4 5.3 NNE 11.5 NNE 0.0 58.2 329.2
14:20 17.7 63.4 1023.4 6.5 N 14.2 NE 0.0 57.9 318.5
14:25 17.8 62.2 1023.4 2.9 WNW 11.5 NNW 0.0 57.5 292.3
14:30 17.9 62.0 1023.4 4.5 WNW 8.8 NW 0.0 57.2 279.9
14:35 18.0 61.0 1023.4 1.6 W 8.8 WNW 0.0 56.7 274.3
14:40 18.2 61.3 1023.4 2.5 N 8.8 NNE 0.0 56.5 261.5
14:45 18.0 61.8 1023.4 1.6 N 8.8 NNE 0.0 56.1 246.3
14:50 18.0 61.4 1023.4 1.1 NNE 6.1 WNW 0.0 55.7 235.3
14:55 18.0 61.8 1023.4 3.4 W 8.8 WSW 0.0 55.2 229.5
15:00 18.0 62.5 1023.4 3.1 WSW 6.1 WSW 0.0 54.9 221.3
15:05 18.0 64.4 1023.4 0.0 W 3.4 W 0.0 54.8 211.9
15:10 18.0 65.5 1023.5 0.0 N 3.4 N 0.0 54.8 202.2
15:15 18.1 64.5 1023.5 0.0 NNE 0.0 NNW 0.0 54.5 190.7
15:20 17.7 67.7 1023.5 1.3 NNW 8.8 N 0.0 54.3 177.0
15:25 17.5 67.5 1023.6 0.6 N 6.1 NNW 0.0 54.2 163.6
15:30 17.3 71.5 1023.5 0.4 SW 6.1 WSW 0.0 53.8 151.6
15:35 16.9 73.3 1023.5 0.1 NNE 3.4 N 0.0 53.7 118.1
15:40 16.4 75.5 1023.5 0.0 W 3.4 W 0.0 53.1 43.1
15:45 15.5 78.9 1023.6 1.4 WSW 6.1 W 0.0 53.2 38.3
15:50 14.9 82.1 1023.5 1.0 WSW 3.4 WSW 0.0 53.6 36.1
15:55 14.5 83.9 1023.6 1.4 WSW 6.1 WSW 0.0 54.1 34.0
16:00 14.1 85.3 1023.6 1.9 WSW 6.1 WSW 0.0 54.6 31.3
16:05 13.8 86.3 1023.5 3.0 WSW 6.1 W 0.0 55.2 28.4
16:10 13.5 86.8 1023.5 3.4 WSW 6.1 WSW 0.0 55.6 25.1
16:15 13.3 87.6 1023.5 2.8 SW 3.4 SW 0.0 56.2 22.4
16:20 13.1 88.0 1023.5 2.9 WSW 3.4 SW 0.0 56.7 20.3
16:25 13.0 88.5 1023.5 2.7 WSW 3.4 WSW 0.0 57.3 19.1
16:30 12.8 88.9 1023.6 2.7 WSW 3.4 WSW 0.0 57.8 16.6
16:35 12.7 89.2 1023.6 1.6 WSW 3.4 WSW 0.0 58.3 12.0
16:40 12.5 89.4 1023.6 2.8 SW 6.1 SW 0.0 58.7 8.6
16:45 12.3 89.9 1023.6 3.6 WSW 6.1 SW 0.0 59.2 5.7
16:50 12.1 90.7 1023.6 3.3 WSW 6.1 WSW 0.0 59.8 3.8
16:55 12.0 91.3 1023.6 3.0 WSW 6.1 WSW 0.0 60.4 4.5
17:00 11.9 91.8 1023.7 2.9 WSW 6.1 W 0.0 61.0 2.9
17:05 11.7 91.9 1023.7 3.6 WSW 6.1 WSW 0.0 61.5 0.7
17:10 11.5 92.5 1023.7 4.0 WSW 6.1 WSW 0.0 62.1 0.0
17:15 11.4 93.0 1023.8 3.7 SW 6.1 SW 0.0 62.7 0.0
17:20 11.3 93.4 1023.8 2.3 SW 6.1 SW 0.0 63.3 0.0
17:25 11.2 93.8 1023.8 0.0 NNE 0.0 SW 0.0 63.9 0.0
17:30 11.1 94.3 1023.9 1.9 SW 6.1 SW 0.0 64.6 0.0
17:35 11.0 94.9 1023.9 3.0 SW 6.1 SW 0.0 65.4 0.0
17:40 11.0 95.1 1023.9 3.5 SW 6.1 SW 0.0 66.0 0.0
17:45 11.0 95.1 1024.0 2.4 SW 6.1 SW 0.0 66.7 0.0
17:50 10.9 95.0 1024.0 3.0 WSW 6.1 SW 0.0 67.3 0.0
17:55 10.9 95.0 1024.0 2.5 WSW 6.1 WSW 0.0 67.9 0.0
18:00 10.8 94.9 1024.1 2.6 SW 6.1 SW 0.0 68.4 0.0
18:05 10.7 95.2 1024.1 0.8 SW 3.4 SW 0.0 69.0 0.0
18:10 10.7 95.5 1024.1 1.0 SW 3.4 SW 0.0 69.7 0.0
18:15 10.6 95.7 1024.2 0.8 SW 3.4 SW 0.0 70.3 0.0
18:20 10.5 95.9 1024.2 0.0 NNE 0.0 SW 0.0 70.9 0.0
18:25 10.5 96.0 1024.2 0.0 NNE 0.0 SW 0.0 71.6 0.0
18:30 10.4 96.0 1024.2 1.7 SW 3.4 SW 0.0 72.1 0.0
18:35 10.4 96.3 1024.2 1.8 SW 6.1 SW 0.0 72.8 0.0
18:40 10.3 96.3 1024.3 0.0 NNE 0.0 SW 0.0 73.3 0.0
18:45 10.2 96.5 1024.3 0.1 SW 3.4 SW 0.0 73.9 0.0
18:50 10.2 96.6 1024.2 0.7 SW 3.4 WSW 0.0 74.6 0.0
18:55 10.1 96.7 1024.2 0.0 NNE 0.0 SW 0.0 75.2 0.0
19:00 10.0 96.8 1024.2 0.2 SW 3.4 SW 0.0 75.8 0.0
19:05 10.0 97.0 1024.2 0.0 NNE 0.0 SW 0.0 76.5 0.0
19:10 10.0 97.1 1024.2 0.0 NNE 0.0 SW 0.0 77.1 0.0
19:15 9.9 97.2 1024.2 0.0 NNE 0.0 SW 0.0 77.7 0.0
19:20 9.9 97.3 1024.2 0.0 NNE 0.0 SW 0.0 78.3 0.0
19:25 9.8 97.4 1024.3 0.5 WSW 3.4 SW 0.0 79.0 0.0
19:30 9.8 97.4 1024.3 1.7 SW 3.4 WSW 0.0 79.6 0.0
19:35 9.8 97.5 1024.3 0.2 SW 3.4 SW 0.0 80.2 0.0
19:40 9.7 97.5 1024.3 0.0 NNE 0.0 SW 0.0 80.7 0.0
19:45 9.6 97.6 1024.3 0.0 NNE 0.0 SW 0.0 81.3 0.0
19:50 9.6 97.7 1024.2 0.0 NNE 0.0 SW 0.0 81.9 0.0
19:55 9.5 97.8 1024.3 0.0 NNE 0.0 SW 0.0 82.5 0.0
20:00 9.5 97.8 1024.3 2.4 SW 6.1 SW 0.0 83.2 0.0
20:05 9.5 98.0 1024.2 0.6 WSW 3.4 WSW 0.0 83.9 0.0
20:10 9.5 98.0 1024.3 0.0 NNE 0.0 WSW 0.0 84.4 0.0
20:15 9.4 98.0 1024.3 0.0 NNE 0.0 WSW 0.0 84.9 0.0
20:20 9.3 98.1 1024.3 0.3 WSW 3.4 WSW 0.0 85.6 0.0
20:25 9.3 98.1 1024.3 0.0 NNE 0.0 WSW 0.0 86.1 0.0
20:30 9.2 98.2 1024.4 0.0 NNE 0.0 WSW 0.0 86.7 0.0
20:35 9.2 98.3 1024.4 0.0 NNE 0.0 WSW 0.0 87.4 0.0
20:40 9.2 98.3 1024.5 0.4 WSW 3.4 WSW 0.0 88.0 0.0
20:45 9.2 98.4 1024.5 0.2 WSW 3.4 WSW 0.0 88.6 0.0
20:50 9.2 98.4 1024.5 0.0 NNE 0.0 WSW 0.0 88.9 0.0
20:55 9.1 98.4 1024.5 0.0 NNE 0.0 WSW 0.0 89.5 0.0
21:00 9.1 98.5 1024.5 0.0 NNE 0.0 WSW 0.0 90.1 0.0
21:05 9.1 98.5 1024.5 0.0 NNE 0.0 WSW 0.0 90.7 0.0
21:10 9.1 98.6 1024.6 0.0 NNE 0.0 WSW 0.0 91.3 0.0
21:15 9.0 98.5 1024.6 0.0 NNE 0.0 WSW 0.0 91.7 0.0
21:20 8.9 98.6 1024.6 0.0 NNE 0.0 WSW 0.0 92.2 0.0
21:25 8.9 98.7 1024.7 0.0 NNE 0.0 WSW 0.0 92.8 0.0
21:30 8.9 98.7 1024.7 0.0 WSW 3.4 WSW 0.0 93.5 0.0
21:35 8.8 98.6 1024.7 0.1 S 3.4 S 0.0 93.9 0.0
21:40 8.8 98.7 1024.6 0.0 NNE 0.0 SW 0.0 94.5 0.0
21:45 8.8 98.9 1024.6 0.7 WSW 3.4 WSW 0.0 95.2 0.0
21:50 8.9 98.9 1024.6 0.4 WSW 3.4 WSW 0.0 95.8 0.0
21:55 8.9 98.9 1024.6 0.1 SW 3.4 SW 0.0 96.3 0.0
22:00 8.8 98.8 1024.6 0.0 NNE 0.0 SW 0.0 96.7 0.0
22:05 8.7 98.7 1024.7 0.0 NNE 0.0 SW 0.0 97.1 0.0
22:10 8.5 98.7 1024.7 0.0 NNE 0.0 N 0.0 97.5 0.0
22:15 8.5 98.8 1024.7 0.1 W 3.4 W 0.0 98.1 0.0
22:20 8.5 98.9 1024.7 0.5 WSW 3.4 WSW 0.0 98.8 0.0
22:25 8.5 98.9 1024.7 0.0 NNE 0.0 WNW 0.0 99.3 0.0
22:30 8.4 98.9 1024.7 0.0 NNE 0.0 WNW 0.0 99.6 0.0
22:35 8.3 98.9 1024.7 0.3 WSW 3.4 W 0.0 100.2 0.0
22:40 8.3 99.0 1024.7 0.0 NNE 0.0 WSW 0.0 100.7 0.0
22:45 8.2 99.0 1024.7 0.0 NNE 0.0 WSW 0.0 101.1 0.0
22:50 8.3 99.2 1024.7 0.0 WSW 3.4 WSW 0.0 101.9 0.0
Màxima 18.2 99.9 1025.1 8.1 NNE 19.6 NNE 0.0 136.0 613.3
Mínima 6.5 61.0 1022.3 53.1
Total 0.0